Jackson, Maine
Current Conditions -  °F | °C
As of 10:53 PM on Saturday 25 Oct 2014 (Local Time) from KBGR Reporting Station
Overcast Overcast  
Wind Chill: 48°   Ceiling: 8000
Heat Index: 48°   Visibility: 10mi
Dew Point: 44°   Wind: 0mph
Humidity: 86%   Direction: NA
Pressure: 29.47"   Gusts: NA
Location:  44.5719°N, 69.1432°W
Report Text: KBGR 260253Z 00000KT 10SM OVC080 09/07 A2947 RMK AO2 SLP978 T00890067 58022
Loading
Personal Weather Stations






























Interactive Weather Map
Tropical Storm Tracking
New forecast layout! Learn more

10-Day Weather Forecast

Advertisements
Track Severe Weather on mobile